Salt Creek, Ohio
Current Conditions -  °F | °C
As of 3:56 PM on Friday 31 Oct 2014 (Local Time) from KBJJ Reporting Station
Light Rain Light Rain  
Wind Chill: 43°   Ceiling: 2400
Heat Index: 47°   Visibility: 10mi
Dew Point: 38°   Wind: 9mph
Humidity: 71%   Direction: 290°WNW
Pressure: 29.85"   Gusts: NA
Location:  40.6236°N, 81.7849°W
Report Text: KBJJ 311956Z AUTO 29008KT 10SM -RA BKN024 OVC045 08/03 A2985 RMK AO2 RAB10 SLP112 P0000 T00830033 TSNO
Loading
Personal Weather Stations






























Interactive Weather Map
Tropical Storm Tracking
New forecast layout! Learn more

10-Day Weather Forecast

Advertisements
Track Severe Weather on mobile